Time;durP1;ratioP1;P1;durP2;ratioP2;P2;SDS_P1;SDS_P2;PMS_P1;PMS_P2;Temp;Humidity;BMP_temperature;BMP_pressure;BME280_temperature;BME280_humidity;BME280_pressure;Samples;Min_cycle;Max_cycle;Signal;HPM_P1;HPM_P2
2022/01/17 00:01:47;;;;;;;1374.65;984.75;;;5.30;99.90;;;;;;5052949;28;20044;-82
2022/01/17 00:04:14;;;;;;;1343.82;938.45;;;5.30;99.90;;;;;;5048403;28;20064;-82
2022/01/17 00:06:41;;;;;;;1333.40;935.30;;;5.30;99.90;;;;;;5069207;28;20044;-83
2022/01/17 00:09:06;;;;;;;1295.95;910.70;;;5.30;99.90;;;;;;5051007;28;20040;-82
2022/01/17 00:11:34;;;;;;;1432.97;997.38;;;5.30;99.90;;;;;;5051027;28;20097;-81
2022/01/17 00:14:00;;;;;;;1397.43;980.58;;;4.90;99.90;;;;;;5050997;28;20049;-80
2022/01/17 00:16:38;;;;;;;1386.72;968.05;;;5.30;99.90;;;;;;5051300;28;20645;-83
2022/01/17 00:21:48;;;;;;;1374.68;923.45;;;5.30;99.90;;;;;;5046570;28;20140;-82
2022/01/17 00:24:14;;;;;;;1343.03;923.55;;;5.30;99.90;;;;;;5049826;28;20127;-82
2022/01/17 00:26:40;;;;;;;1403.85;964.65;;;5.30;99.90;;;;;;5052788;28;20040;-81
2022/01/17 00:29:07;;;;;;;1328.03;903.47;;;5.30;99.90;;;;;;5050603;28;20494;-82
2022/01/17 00:31:32;;;;;;;1454.78;996.38;;;5.30;99.90;;;;;;5051281;28;20484;-81
2022/01/17 00:33:58;;;;;;;1344.70;939.22;;;5.30;99.90;;;;;;5050865;28;20097;-81
2022/01/17 00:36:24;;;;;;;1443.82;970.83;;;5.20;99.90;;;;;;5052683;28;20075;-81
2022/01/17 00:38:49;;;;;;;1441.18;999.53;;;5.20;99.90;;;;;;5050353;28;20076;-81
2022/01/17 00:41:15;;;;;;;1429.93;999.90;;;5.30;99.90;;;;;;5069779;28;20326;-81
2022/01/17 00:43:40;;;;;;;1375.38;963.95;;;5.30;99.90;;;;;;5068835;28;20053;-81
2022/01/17 00:46:06;;;;;;;1410.95;960.83;;;5.30;99.90;;;;;;5051273;28;20048;-81
2022/01/17 00:48:32;;;;;;;1445.57;995.83;;;5.30;99.90;;;;;;5051832;28;20048;-82
2022/01/17 00:50:58;;;;;;;1402.18;959.60;;;5.20;99.90;;;;;;5069067;28;20087;-84
2022/01/17 00:53:23;;;;;;;1397.93;965.67;;;5.20;99.90;;;;;;5050235;28;20407;-81
2022/01/17 00:55:49;;;;;;;1385.45;948.55;;;5.20;99.90;;;;;;5051613;28;20044;-81
2022/01/17 00:58:14;;;;;;;1335.95;912.22;;;5.10;99.90;;;;;;5051170;28;20381;-81
2022/01/17 01:00:41;;;;;;;1361.35;928.85;;;5.40;99.90;;;;;;5050706;28;20075;-81
2022/01/17 01:03:07;;;;;;;1355.70;934.75;;;5.10;99.90;;;;;;5068993;28;20055;-80
2022/01/17 01:05:34;;;;;;;1356.70;928.47;;;5.10;99.90;;;;;;5051046;28;20040;-81
2022/01/17 01:07:59;;;;;;;1398.13;975.85;;;5.10;99.90;;;;;;5047638;28;20067;-81
2022/01/17 01:10:25;;;;;;;1376.82;943.00;;;5.00;99.90;;;;;;5046002;28;20048;-81
2022/01/17 01:12:52;;;;;;;1386.95;919.00;;;5.00;99.90;;;;;;5050085;28;20489;-81
2022/01/17 01:15:47;;;;;;;1379.68;929.35;;;5.00;99.90;;;;;;5069320;28;20127;-81
2022/01/17 01:18:36;;;;;;;1410.70;930.13;;;5.00;99.90;;;;;;5051222;28;20044;-81
2022/01/17 01:29:21;;;;;;;1436.47;965.10;;;5.10;99.90;;;;;;5063757;28;20338;-81
2022/01/17 01:31:54;;;;;;;1365.43;931.20;;;5.10;99.90;;;;;;5067644;28;20048;-81
2022/01/17 01:34:28;;;;;;;1432.22;934.13;;;5.10;99.90;;;;;;5064425;28;20048;-81
2022/01/17 01:36:54;;;;;;;1317.38;866.25;;;5.10;99.90;;;;;;5050047;28;20064;-81
2022/01/17 01:39:24;;;;;;;1423.53;941.08;;;5.10;99.90;;;;;;5068450;28;20104;-81
2022/01/17 01:41:51;;;;;;;1342.13;899.92;;;5.10;99.90;;;;;;5068184;28;20121;-81
2022/01/17 01:44:19;;;;;;;1332.82;904.28;;;5.10;99.90;;;;;;5067664;28;20048;-81
2022/01/17 01:46:46;;;;;;;1382.88;955.42;;;5.10;99.90;;;;;;5050238;28;20616;-83
2022/01/17 01:49:14;;;;;;;1408.47;964.10;;;5.00;99.90;;;;;;5047989;28;20040;-82
2022/01/17 01:51:40;;;;;;;1415.90;974.58;;;5.00;99.90;;;;;;5050525;28;20052;-81
2022/01/17 01:54:07;;;;;;;1380.10;939.53;;;5.00;99.90;;;;;;5044686;28;20202;-81
2022/01/17 01:56:37;;;;;;;1331.18;882.75;;;5.00;99.90;;;;;;5063825;28;20059;-82
2022/01/17 01:59:04;;;;;;;1352.75;903.42;;;5.00;99.90;;;;;;5049285;28;20036;-81
2022/01/17 02:01:30;;;;;;;1357.15;920.65;;;5.00;99.90;;;;;;5050301;28;20040;-82
2022/01/17 02:03:56;;;;;;;1395.22;915.15;;;5.00;99.90;;;;;;5067572;28;20070;-83
2022/01/17 02:06:21;;;;;;;1420.78;968.65;;;5.00;99.90;;;;;;5048819;28;20053;-81
2022/01/17 02:08:47;;;;;;;1370.35;892.95;;;4.90;99.90;;;;;;5049202;28;20036;-81
2022/01/17 02:11:13;;;;;;;1405.00;918.63;;;4.90;99.90;;;;;;5049599;28;20044;-82
2022/01/17 02:13:39;;;;;;;1334.13;857.72;;;4.90;99.90;;;;;;5049297;28;20052;-82
2022/01/17 02:16:10;;;;;;;1327.55;879.30;;;4.90;99.90;;;;;;5048891;28;20052;-81
2022/01/17 02:18:41;;;;;;;1430.70;931.90;;;4.90;99.90;;;;;;5067459;28;20044;-81
2022/01/17 02:23:35;;;;;;;1377.90;911.67;;;4.90;99.90;;;;;;5048230;28;20036;-82
2022/01/17 02:26:01;;;;;;;1477.38;959.58;;;4.80;99.90;;;;;;5049535;28;20040;-81
2022/01/17 02:28:27;;;;;;;1334.93;874.28;;;4.80;99.90;;;;;;5040478;28;20625;-81
2022/01/17 02:30:53;;;;;;;1418.53;942.20;;;4.80;99.90;;;;;;5046974;28;20135;-81
2022/01/17 02:33:19;;;;;;;1389.00;900.97;;;4.80;99.90;;;;;;5067701;28;20045;-87
2022/01/17 02:35:49;;;;;;;1337.95;844.42;;;4.80;99.90;;;;;;5048689;28;20403;-81
2022/01/17 02:38:14;;;;;;;1370.38;852.88;;;4.80;99.90;;;;;;5048258;28;20155;-81
2022/01/17 02:40:40;;;;;;;1391.28;868.30;;;4.80;99.90;;;;;;5049842;28;20427;-81
2022/01/17 02:43:07;;;;;;;1395.22;886.90;;;4.80;99.90;;;;;;5050990;28;20040;-82
2022/01/17 02:48:23;;;;;;;1325.53;866.38;;;4.80;99.90;;;;;;5053466;28;20040;-82
2022/01/17 02:50:49;;;;;;;1358.60;881.42;;;4.80;99.90;;;;;;5053442;28;20492;-81
2022/01/17 02:53:15;;;;;;;1387.30;868.47;;;4.80;99.90;;;;;;5052849;28;20040;-82
2022/01/17 02:55:46;;;;;;;1387.18;861.83;;;4.80;99.90;;;;;;5053012;28;20071;-80
2022/01/17 02:58:13;;;;;;;1410.82;923.15;;;4.80;99.90;;;;;;5070769;28;20065;-81
2022/01/17 03:00:39;;;;;;;1351.70;837.08;;;4.80;99.90;;;;;;5053306;28;20527;-81
2022/01/17 03:03:04;;;;;;;1364.20;870.83;;;4.80;99.90;;;;;;5053284;28;20124;-80
2022/01/17 03:05:30;;;;;;;1393.50;902.00;;;4.90;99.90;;;;;;5053767;28;20118;-86
2022/01/17 03:07:56;;;;;;;1386.28;862.72;;;4.90;99.90;;;;;;5053253;28;20049;-80
2022/01/17 03:13:20;;;;;;;1408.45;870.38;;;4.90;99.90;;;;;;5039121;28;20060;-81
2022/01/17 03:15:57;;;;;;;1479.28;963.83;;;4.90;99.90;;;;;;5053134;28;20036;-81
2022/01/17 03:18:26;;;;;;;1397.72;911.05;;;4.90;99.90;;;;;;5053290;28;20124;-81
2022/01/17 03:20:52;;;;;;;1402.60;894.08;;;5.00;99.90;;;;;;5053122;28;20576;-80
2022/01/17 03:23:17;;;;;;;1393.07;914.85;;;5.00;99.90;;;;;;5052456;28;20044;-89
2022/01/17 03:25:43;;;;;;;1361.15;883.38;;;5.00;99.90;;;;;;5053594;28;20484;-81
2022/01/17 03:28:09;;;;;;;1379.25;867.53;;;5.00;99.90;;;;;;5051734;28;20044;-80
2022/01/17 03:30:35;;;;;;;1452.28;935.17;;;5.00;99.90;;;;;;5052291;28;20087;-81
2022/01/17 03:33:05;;;;;;;1357.72;867.60;;;5.00;99.90;;;;;;5052091;28;20101;-79
2022/01/17 03:35:31;;;;;;;1380.28;880.13;;;5.10;99.90;;;;;;5070946;28;20486;-79
2022/01/17 03:37:57;;;;;;;1416.03;899.28;;;5.10;99.90;;;;;;5052445;28;20043;-79
2022/01/17 03:40:23;;;;;;;1370.30;913.80;;;5.10;99.90;;;;;;5052337;28;20055;-79
2022/01/17 03:42:49;;;;;;;1368.55;887.10;;;5.20;99.90;;;;;;5052173;28;20040;-79
2022/01/17 03:45:15;;;;;;;1354.10;890.50;;;5.20;99.90;;;;;;5052307;28;20036;-81
2022/01/17 03:47:44;;;;;;;1424.47;948.78;;;5.20;99.90;;;;;;5044340;28;20033;-86
2022/01/17 03:50:13;;;;;;;1352.95;877.83;;;5.20;99.90;;;;;;5052546;28;20525;-82
2022/01/17 03:52:40;;;;;;;1343.80;868.22;;;5.20;99.90;;;;;;5038638;28;20051;-80
2022/01/17 03:55:11;;;;;;;1348.40;910.15;;;5.30;99.90;;;;;;5050044;28;20033;-80
2022/01/17 03:57:37;;;;;;;1344.18;914.63;;;5.30;99.90;;;;;;5049600;28;20052;-83
2022/01/17 04:00:08;;;;;;;1393.57;923.67;;;5.30;99.90;;;;;;5069802;28;20044;-81
2022/01/17 04:02:33;;;;;;;1393.70;975.45;;;5.30;99.90;;;;;;5049899;28;20035;-82
2022/01/17 04:04:59;;;;;;;1414.38;937.95;;;5.30;99.90;;;;;;5069242;28;20396;-81
2022/01/17 04:07:24;;;;;;;1377.72;946.50;;;5.30;99.90;;;;;;5044180;28;20029;-80
2022/01/17 04:09:50;;;;;;;1442.82;985.95;;;5.30;99.90;;;;;;5042451;28;20397;-83
2022/01/17 04:12:16;;;;;;;1334.95;914.78;;;5.30;99.90;;;;;;5052259;28;20040;-80
2022/01/17 04:14:42;;;;;;;1419.03;954.58;;;5.30;99.90;;;;;;5068963;28;20044;-81
2022/01/17 04:17:08;;;;;;;1331.60;886.97;;;5.30;99.90;;;;;;5051327;28;20047;-81
2022/01/17 04:19:34;;;;;;;1328.05;891.70;;;5.30;99.90;;;;;;5051210;28;20040;-81
2022/01/17 04:22:01;;;;;;;1418.78;981.75;;;5.40;99.90;;;;;;5052026;28;20417;-86
2022/01/17 04:24:26;;;;;;;1444.47;995.30;;;5.40;99.90;;;;;;5068345;28;20146;-81
2022/01/17 04:26:53;;;;;;;1353.18;937.25;;;5.40;99.90;;;;;;5052384;28;20049;-81
2022/01/17 04:29:20;;;;;;;1317.80;879.58;;;5.40;99.90;;;;;;5051485;28;20672;-84
2022/01/17 04:31:46;;;;;;;1381.28;928.85;;;5.40;99.90;;;;;;5050447;28;20048;-81
2022/01/17 04:34:13;;;;;;;1355.28;899.38;;;5.50;99.90;;;;;;5051333;28;20610;-81
2022/01/17 04:36:38;;;;;;;1365.30;916.97;;;5.50;99.90;;;;;;5069409;28;20419;-81
2022/01/17 04:39:04;;;;;;;1389.45;923.95;;;5.50;99.90;;;;;;5050678;28;20052;-83
2022/01/17 04:41:38;;;;;;;1429.18;989.67;;;5.50;99.90;;;;;;5051392;28;20507;-81
2022/01/17 04:46:49;;;;;;;1349.93;912.90;;;5.60;99.90;;;;;;5047656;28;20044;-81
2022/01/17 04:49:15;;;;;;;1367.15;908.67;;;5.60;99.90;;;;;;5050086;28;20043;-85
2022/01/17 04:51:41;;;;;;;1420.35;976.75;;;5.60;99.90;;;;;;5050516;28;20044;-83
2022/01/17 04:54:53;;;;;;;1397.40;985.03;;;5.60;99.90;;;;;;5066111;28;20117;-81
2022/01/17 04:56:53;;;;;;;1455.25;975.80;;;5.70;99.90;;;;;;5065196;28;20053;-85
2022/01/17 04:59:18;;;;;;;1420.13;980.83;;;5.70;99.90;;;;;;5049657;28;20045;-80
2022/01/17 05:01:44;;;;;;;1385.82;968.35;;;5.70;99.90;;;;;;5070078;28;20040;-79
2022/01/17 05:04:09;;;;;;;1315.07;904.17;;;5.70;99.90;;;;;;5050976;28;20041;-84
2022/01/17 05:06:35;;;;;;;1354.72;960.58;;;5.80;99.90;;;;;;5068951;28;20131;-82
2022/01/17 05:09:04;;;;;;;1349.75;946.45;;;5.80;99.90;;;;;;5049524;28;20475;-81
2022/01/17 05:11:31;;;;;;;1379.63;987.92;;;5.80;99.90;;;;;;5069535;28;20384;-81
2022/01/17 05:13:57;;;;;;;1362.68;971.30;;;5.80;99.90;;;;;;5048742;28;20064;-81
2022/01/17 05:16:31;;;;;;;1403.13;999.90;;;5.80;99.90;;;;;;5050895;28;20048;-80
2022/01/17 05:21:41;;;;;;;1330.30;932.30;;;5.80;99.90;;;;;;5031667;28;20547;-80
2022/01/17 05:24:07;;;;;;;1381.22;969.55;;;5.80;99.90;;;;;;5048478;28;20189;-80
2022/01/17 05:26:32;;;;;;;1384.43;991.35;;;5.80;99.90;;;;;;5050649;28;20064;-91
2022/01/17 05:28:58;;;;;;;1324.15;941.88;;;5.90;99.90;;;;;;5050010;28;20047;-83
2022/01/17 05:31:23;;;;;;;1340.82;953.35;;;5.90;99.90;;;;;;5050590;28;20040;-84
2022/01/17 05:33:49;;;;;;;1293.78;914.80;;;5.90;99.90;;;;;;5066844;28;20044;-83
2022/01/17 05:36:14;;;;;;;1436.13;999.33;;;5.90;99.90;;;;;;5048705;28;20044;-83
2022/01/17 05:38:40;;;;;;;1452.25;999.90;;;5.90;99.90;;;;;;5049048;28;20105;-84
2022/01/17 05:41:06;;;;;;;1375.82;964.67;;;5.90;99.90;;;;;;5048813;28;20045;-84
2022/01/17 05:43:31;;;;;;;1411.68;998.65;;;5.90;99.90;;;;;;5049705;28;20036;-81
2022/01/17 05:45:57;;;;;;;1330.50;938.25;;;6.00;99.90;;;;;;5068537;28;20140;-81
2022/01/17 05:48:23;;;;;;;1472.53;999.90;;;6.00;99.90;;;;;;5049712;28;20086;-92
2022/01/17 05:50:48;;;;;;;1364.75;975.40;;;6.00;99.90;;;;;;5050942;28;20050;-84
2022/01/17 05:53:14;;;;;;;1451.45;999.90;;;6.00;99.90;;;;;;5050271;28;20044;-81
2022/01/17 05:55:41;;;;;;;1396.38;999.90;;;6.00;99.90;;;;;;5049055;28;20037;-85
2022/01/17 05:58:07;;;;;;;1341.35;965.95;;;6.00;99.90;;;;;;5050541;28;20047;-85
2022/01/17 06:00:32;;;;;;;1364.40;977.67;;;6.00;99.90;;;;;;5050133;28;20048;-85
2022/01/17 06:03:01;;;;;;;1450.78;999.90;;;6.00;99.90;;;;;;5049893;28;20120;-81
2022/01/17 06:05:27;;;;;;;1387.57;996.28;;;6.00;99.90;;;;;;5050544;28;20143;-81
2022/01/17 06:07:53;;;;;;;1380.18;998.22;;;6.00;99.90;;;;;;5051796;28;20045;-81
2022/01/17 06:10:18;;;;;;;1438.93;999.90;;;6.00;99.90;;;;;;5050908;28;20124;-84
2022/01/17 06:12:44;;;;;;;1446.70;999.90;;;6.00;99.90;;;;;;5049895;28;20439;-80
2022/01/17 06:15:10;;;;;;;1347.20;976.42;;;6.00;99.90;;;;;;5048856;28;20559;-80
2022/01/17 06:17:36;;;;;;;1394.53;992.60;;;6.00;99.90;;;;;;5050245;28;20044;-79
2022/01/17 06:20:03;;;;;;;1411.45;999.90;;;6.00;99.90;;;;;;5050789;28;20149;-80
2022/01/17 06:22:29;;;;;;;1436.65;999.90;;;6.00;99.90;;;;;;5049675;28;20103;-83
2022/01/17 06:24:54;;;;;;;1383.25;997.72;;;6.10;99.90;;;;;;5047370;28;20590;-88
2022/01/17 06:27:20;;;;;;;1390.43;998.08;;;6.10;99.90;;;;;;5048556;28;20109;-79
2022/01/17 06:29:46;;;;;;;1429.10;999.90;;;6.10;99.90;;;;;;5048727;28;20177;-81
2022/01/17 06:32:12;;;;;;;1452.82;999.90;;;6.10;99.90;;;;;;5049677;28;20044;-84
2022/01/17 06:34:37;;;;;;;1396.35;992.83;;;6.10;99.90;;;;;;5067564;28;20086;-80
2022/01/17 06:37:03;;;;;;;1448.07;999.90;;;6.10;99.90;;;;;;5049455;28;20048;-80
2022/01/17 06:39:29;;;;;;;1414.95;999.45;;;6.10;99.90;;;;;;5049481;28;20044;-80
2022/01/17 06:41:54;;;;;;;1442.18;999.90;;;6.10;99.90;;;;;;5050085;28;20464;-79
2022/01/17 06:44:20;;;;;;;1347.22;958.40;;;6.20;99.90;;;;;;5048311;28;20032;-79
2022/01/17 06:46:46;;;;;;;1424.95;999.90;;;6.10;99.90;;;;;;5050548;28;20045;-80
2022/01/17 06:49:12;;;;;;;1407.07;999.90;;;6.20;99.90;;;;;;5049140;28;20041;-82
2022/01/17 06:51:38;;;;;;;1483.63;999.90;;;6.20;99.90;;;;;;5049589;28;20141;-83
2022/01/17 06:54:04;;;;;;;1441.63;999.90;;;6.20;99.90;;;;;;5049154;28;20080;-82
2022/01/17 06:56:29;;;;;;;1442.80;999.90;;;6.20;99.90;;;;;;5049287;28;20393;-81
2022/01/17 06:58:55;;;;;;;1445.32;999.90;;;6.20;99.90;;;;;;5050598;28;20048;-82
2022/01/17 07:01:21;;;;;;;1388.55;993.72;;;6.20;99.90;;;;;;5049361;28;20066;-81
2022/01/17 07:03:48;;;;;;;1358.75;983.10;;;6.20;99.90;;;;;;5055229;28;20051;-80
2022/01/17 07:06:14;;;;;;;1393.88;999.72;;;6.20;99.90;;;;;;5054670;28;20119;-81
2022/01/17 07:08:40;;;;;;;1365.20;989.15;;;6.20;99.90;;;;;;5049110;28;20135;-81
2022/01/17 07:11:06;;;;;;;1342.40;975.38;;;6.30;99.90;;;;;;5049595;28;20127;-82
2022/01/17 07:13:32;;;;;;;1385.88;997.30;;;6.30;99.90;;;;;;5047363;28;20475;-80
2022/01/17 07:15:57;;;;;;;1407.65;999.90;;;6.30;99.90;;;;;;5048386;28;20048;-82
2022/01/17 07:18:23;;;;;;;1469.32;999.90;;;6.30;99.90;;;;;;5049936;28;20043;-81
2022/01/17 07:20:49;;;;;;;1401.10;999.90;;;6.30;99.90;;;;;;5049431;28;20032;-82
2022/01/17 07:23:15;;;;;;;1354.70;962.42;;;6.30;99.90;;;;;;5049156;28;20044;-82
2022/01/17 07:25:41;;;;;;;1453.13;999.90;;;6.30;99.90;;;;;;5048850;28;20032;-83
2022/01/17 07:28:12;;;;;;;1381.80;993.03;;;6.40;99.90;;;;;;5049179;28;20059;-84
2022/01/17 07:30:37;;;;;;;1385.72;997.70;;;6.40;99.90;;;;;;5050840;28;20528;-85
2022/01/17 07:33:04;;;;;;;1383.30;997.40;;;6.40;99.90;;;;;;5047415;28;20054;-82
2022/01/17 07:35:31;;;;;;;1428.93;999.90;;;6.40;99.90;;;;;;5048241;28;20087;-86
2022/01/17 07:37:56;;;;;;;1375.15;985.25;;;6.40;99.90;;;;;;5067487;28;20044;-86
2022/01/17 07:40:23;;;;;;;1437.55;999.90;;;6.40;99.90;;;;;;5043255;28;20063;-89
2022/01/17 07:42:48;;;;;;;1462.00;999.90;;;6.50;99.90;;;;;;5048465;28;20041;-81
2022/01/17 07:45:16;;;;;;;1350.82;975.15;;;6.50;99.90;;;;;;5052630;28;20047;-84
2022/01/17 07:47:56;;;;;;;1410.75;999.72;;;6.70;99.90;;;;;;5069602;28;20170;-86
2022/01/17 07:50:23;;;;;;;1450.35;999.90;;;6.50;99.90;;;;;;5049588;28;20558;-81
2022/01/17 07:52:50;;;;;;;1368.35;972.67;;;6.60;99.90;;;;;;5051238;28;20379;-84
2022/01/17 07:55:17;;;;;;;1383.00;980.95;;;6.60;99.90;;;;;;5048904;28;20040;-82
2022/01/17 07:57:43;;;;;;;1400.55;999.30;;;6.60;99.90;;;;;;5052745;28;20147;-83
2022/01/17 08:00:11;;;;;;;1383.18;995.88;;;6.60;99.90;;;;;;5050622;28;20079;-88
2022/01/17 08:02:37;;;;;;;1403.55;999.90;;;6.60;99.90;;;;;;5050216;28;20056;-91
2022/01/17 08:05:03;;;;;;;1453.65;999.90;;;6.70;99.90;;;;;;5052893;28;20127;-85
2022/01/17 08:07:29;;;;;;;1423.75;999.90;;;6.70;99.90;;;;;;5052092;28;20040;-84
2022/01/17 08:09:55;;;;;;;1322.95;940.67;;;6.70;99.90;;;;;;5051018;28;20040;-90
2022/01/17 08:12:21;;;;;;;1353.85;985.08;;;6.80;99.90;;;;;;5067589;28;20046;-82
2022/01/17 08:14:46;;;;;;;1411.85;999.90;;;6.80;99.90;;;;;;5066253;28;20508;-84
2022/01/17 08:17:13;;;;;;;1401.03;999.90;;;6.80;99.90;;;;;;5051572;28;20036;-84
2022/01/17 08:19:39;;;;;;;1402.93;999.90;;;6.80;99.90;;;;;;5052636;28;20059;-83
2022/01/17 08:22:06;;;;;;;1440.28;999.90;;;7.40;99.90;;;;;;5046552;28;20041;-81
2022/01/17 08:24:33;;;;;;;1451.65;999.90;;;6.90;99.90;;;;;;5071681;28;20033;-84
2022/01/17 08:26:59;;;;;;;1430.13;999.90;;;6.90;99.90;;;;;;5053782;28;20375;-81
2022/01/17 08:29:26;;;;;;;1449.85;999.90;;;6.90;99.90;;;;;;5051781;28;20056;-82
2022/01/17 08:31:53;;;;;;;1437.20;999.90;;;7.00;99.90;;;;;;5052028;28;20361;-82
2022/01/17 08:34:19;;;;;;;1453.43;999.90;;;7.00;99.90;;;;;;5052321;28;20396;-86
2022/01/17 08:36:45;;;;;;;1462.95;999.90;;;7.00;99.90;;;;;;5043689;28;20037;-83
2022/01/17 08:39:11;;;;;;;1226.00;825.35;;;7.00;99.90;;;;;;5049679;28;20036;-84
2022/01/17 08:41:40;;;;;;;1495.82;999.90;;;7.10;99.90;;;;;;5049115;28;20056;-88
2022/01/17 08:44:06;;;;;;;1429.75;999.90;;;7.10;99.90;;;;;;5047228;28;20136;-82
2022/01/17 08:46:31;;;;;;;1423.65;997.75;;;7.10;99.90;;;;;;5068641;28;20116;-85
2022/01/17 08:48:57;;;;;;;1354.05;993.45;;;7.20;99.90;;;;;;5051648;28;20041;-86
2022/01/17 08:51:22;;;;;;;1318.75;942.10;;;7.30;99.90;;;;;;5050463;28;20075;-86
2022/01/17 08:53:48;;;;;;;1320.00;949.03;;;7.30;99.90;;;;;;5048736;28;20514;-83
2022/01/17 08:56:13;;;;;;;1438.15;999.90;;;7.30;99.90;;;;;;5049818;28;20044;-83
2022/01/17 08:58:39;;;;;;;1480.38;999.90;;;7.40;99.90;;;;;;5050624;28;20127;-86
2022/01/17 09:01:05;;;;;;;1446.90;999.90;;;7.40;99.90;;;;;;5049743;28;20204;-82
2022/01/17 09:03:30;;;;;;;1414.35;999.90;;;7.40;99.90;;;;;;5049243;28;20037;-85
2022/01/17 09:05:56;;;;;;;1467.20;999.90;;;7.40;99.90;;;;;;5050883;28;20123;-82
2022/01/17 09:08:23;;;;;;;1422.25;999.90;;;7.40;99.90;;;;;;5049793;28;20202;-85
2022/01/17 09:10:50;;;;;;;1469.70;999.90;;;7.50;99.90;;;;;;5051700;28;20052;-80
2022/01/17 09:13:16;;;;;;;1480.38;999.90;;;7.50;99.90;;;;;;5047869;28;20110;-85
2022/01/17 09:15:41;;;;;;;1376.03;995.92;;;7.30;99.90;;;;;;5031886;28;20075;-86
2022/01/17 09:18:07;;;;;;;1437.40;999.90;;;7.60;99.90;;;;;;5031250;28;20052;-84
2022/01/17 09:20:34;;;;;;;1479.07;999.90;;;7.60;99.90;;;;;;5032722;28;20084;-82
2022/01/17 09:23:02;;;;;;;1530.18;999.90;;;7.70;99.90;;;;;;5031948;28;20153;-83
2022/01/17 09:25:28;;;;;;;1454.60;999.90;;;7.90;99.90;;;;;;5031874;28;20411;-85
2022/01/17 09:27:57;;;;;;;1458.55;999.90;;;7.80;99.90;;;;;;5036308;28;20061;-88
2022/01/17 09:30:24;;;;;;;1455.15;999.90;;;7.80;99.90;;;;;;5033966;28;20037;-91
2022/01/17 09:32:49;;;;;;;1494.28;999.90;;;7.80;99.90;;;;;;5035441;28;20041;-85
2022/01/17 09:35:15;;;;;;;1465.70;999.90;;;7.90;99.90;;;;;;5045408;28;20055;-84
2022/01/17 09:37:42;;;;;;;1485.57;999.90;;;7.90;99.90;;;;;;5024238;28;20389;-86
2022/01/17 09:40:09;;;;;;;1547.32;999.90;;;7.90;99.90;;;;;;5013028;28;20128;-82
2022/01/17 09:42:37;;;;;;;1507.15;999.90;;;7.90;99.90;;;;;;5030780;28;20139;-88
2022/01/17 09:45:11;;;;;;;1306.53;906.45;;;8.00;99.90;;;;;;5025683;28;20059;-84
2022/01/17 09:47:37;;;;;;;1416.20;999.90;;;8.00;99.90;;;;;;5055300;28;20576;-82
2022/01/17 09:50:09;;;;;;;1463.13;999.90;;;8.10;99.90;;;;;;5030960;28;20561;-81
2022/01/17 09:52:35;;;;;;;;;;;8.10;99.90;;;;;;5019665;28;20128;-84
2022/01/17 09:55:14;;;;;;;1481.68;999.90;;;8.10;99.90;;;;;;5031250;28;19920;-89
2022/01/17 09:57:52;;;;;;;1416.22;973.15;;;8.20;99.90;;;;;;5055177;28;20585;-83
2022/01/17 10:00:20;;;;;;;1493.85;999.90;;;8.30;99.90;;;;;;5016519;28;20037;-81
2022/01/17 10:02:47;;;;;;;1587.65;999.90;;;8.30;99.90;;;;;;5016313;28;20069;-85
2022/01/17 10:05:13;;;;;;;1393.50;977.25;;;8.40;99.90;;;;;;5019202;28;20505;-82
2022/01/17 10:08:04;;;;;;;1455.50;999.90;;;8.50;99.90;;;;;;5029059;28;20038;-79
2022/01/17 10:10:54;;;;;;;1361.25;968.00;;;8.50;99.90;;;;;;5011772;28;20037;-84
2022/01/17 10:13:28;;;;;;;1525.82;999.90;;;8.40;99.90;;;;;;5037715;28;20137;-89
2022/01/17 10:16:04;;;;;;;1547.80;999.90;;;8.40;99.90;;;;;;5055563;28;20143;-84
2022/01/17 10:18:51;;;;;;;1502.03;999.90;;;9.10;99.90;;;;;;5056721;28;20072;-85
2022/01/17 10:21:32;;;;;;;1606.00;999.90;;;8.40;99.90;;;;;;5047203;28;20128;-83
2022/01/17 10:35:07;;;;;;;1351.45;883.38;;;8.70;99.90;;;;;;5066758;28;20049;-85
2022/01/17 10:37:32;;;;;;;1537.05;999.90;;;9.10;99.90;;;;;;5059420;28;20057;-84
2022/01/17 10:40:07;;;;;;;1517.97;999.90;;;8.70;99.90;;;;;;5050879;28;20052;-87
2022/01/17 10:42:42;;;;;;;1502.38;999.90;;;8.80;99.90;;;;;;5055594;28;20064;-86
2022/01/17 10:45:24;;;;;;;1623.30;999.90;;;8.90;99.90;;;;;;5051408;28;20059;-89
2022/01/17 10:47:51;;;;;;;;;;;9.00;99.90;;;;;;5052224;28;20105;-86
2022/01/17 10:50:23;;;;;;;1570.05;999.90;;;9.40;99.90;;;;;;5049825;28;19920;-85
2022/01/17 10:52:54;;;;;;;1613.85;999.90;;;9.90;99.90;;;;;;5050089;28;20080;-90
2022/01/17 10:55:26;;;;;;;1408.43;999.90;;;10.30;99.90;;;;;;5053862;28;20044;-84
2022/01/17 10:57:56;;;;;;;1580.63;999.90;;;10.40;99.90;;;;;;5050314;28;20040;-85
2022/01/17 11:00:31;;;;;;;1510.90;999.90;;;11.00;99.90;;;;;;5034897;28;20045;-86
2022/01/17 11:03:05;;;;;;;1531.20;999.90;;;10.10;99.90;;;;;;5050380;28;20060;-84
2022/01/17 11:05:32;;;;;;;1272.35;840.80;;;10.30;99.90;;;;;;5049589;28;20119;-85
2022/01/17 11:08:01;;;;;;;1375.18;883.97;;;10.50;99.90;;;;;;5057170;28;20036;-86
2022/01/17 11:10:42;;;;;;;1352.78;860.42;;;10.20;99.90;;;;;;5055427;28;20051;-83
2022/01/17 11:13:09;;;;;;;1286.68;862.85;;;9.90;99.90;;;;;;5051520;28;20052;-83
2022/01/17 11:15:37;;;;;;;1311.63;891.00;;;9.60;99.90;;;;;;5055089;28;20074;-84
2022/01/17 11:18:10;;;;;;;1512.63;999.90;;;9.50;99.90;;;;;;5069717;28;20058;-87
2022/01/17 11:20:36;;;;;;;1505.65;999.90;;;9.30;99.90;;;;;;5073991;28;20040;-82
2022/01/17 11:23:02;;;;;;;1496.97;999.90;;;9.20;99.90;;;;;;5053234;28;20048;-83
2022/01/17 11:25:34;;;;;;;1373.93;972.95;;;9.10;99.90;;;;;;5051190;28;20079;-87
2022/01/17 11:28:02;;;;;;;1646.20;999.90;;;9.00;99.90;;;;;;5052948;28;20048;-87
2022/01/17 11:30:29;;;;;;;1411.88;999.60;;;9.00;99.90;;;;;;5050418;28;20088;-84
2022/01/17 11:32:56;;;;;;;1407.55;999.38;;;9.00;99.90;;;;;;5046769;28;20044;-82
2022/01/17 11:35:23;;;;;;;1479.90;999.90;;;9.00;99.90;;;;;;5068539;28;20094;-91
2022/01/17 11:37:56;;;;;;;1468.85;999.90;;;8.90;99.90;;;;;;5052652;28;20723;-88
2022/01/17 11:40:34;;;;;;;1478.82;999.90;;;8.90;99.90;;;;;;5069973;28;20040;-86
2022/01/17 11:43:14;;;;;;;1432.15;998.55;;;8.90;99.90;;;;;;5044015;28;20664;-87
2022/01/17 11:45:41;;;;;;;1424.00;999.90;;;8.90;99.90;;;;;;5048418;28;20104;-83
2022/01/17 11:48:18;;;;;;;1409.93;996.92;;;8.90;99.90;;;;;;5052817;28;20033;-85
2022/01/17 11:50:46;;;;;;;1542.18;999.90;;;8.90;99.90;;;;;;5051789;28;20048;-86
2022/01/17 11:53:11;;;;;;;1403.03;946.88;;;8.90;99.90;;;;;;5050819;28;20047;-84
2022/01/17 11:55:42;;;;;;;1580.20;999.90;;;8.90;99.90;;;;;;5053059;28;20143;-83
2022/01/17 11:58:21;;;;;;;1381.78;981.25;;;8.90;99.90;;;;;;5051887;28;20087;-91
2022/01/17 12:00:48;;;;;;;1391.80;993.22;;;8.90;99.90;;;;;;5051595;28;20055;-84
2022/01/17 12:03:19;;;;;;;1454.35;999.90;;;9.00;99.90;;;;;;5052379;28;20070;-84
2022/01/17 12:05:44;;;;;;;1543.83;999.90;;;9.00;99.90;;;;;;5053465;28;20076;-84
2022/01/17 12:08:15;;;;;;;1264.22;849.95;;;9.00;99.90;;;;;;5052970;28;20325;-88
2022/01/17 12:10:45;;;;;;;1364.72;955.08;;;9.00;99.90;;;;;;5052153;28;20055;-85
2022/01/17 12:13:11;;;;;;;1370.97;983.85;;;9.00;99.90;;;;;;5050922;28;20171;-88
2022/01/17 12:16:16;;;;;;;1423.68;999.90;;;8.90;99.90;;;;;;5050097;28;20052;-89
2022/01/17 12:18:54;;;;;;;1360.22;964.95;;;8.90;99.90;;;;;;5039851;28;20041;-89
2022/01/17 12:21:24;;;;;;;1589.13;999.90;;;8.90;99.90;;;;;;5052061;28;20037;-87
2022/01/17 12:24:19;;;;;;;1538.20;999.90;;;8.90;99.90;;;;;;5053291;28;20154;-90
2022/01/17 12:27:03;;;;;;;1564.82;999.90;;;8.80;99.90;;;;;;5053232;28;20110;-89
2022/01/17 12:29:47;;;;;;;1337.60;978.40;;;8.90;99.90;;;;;;5050019;28;20052;-89
2022/01/17 12:32:25;;;;;;;1445.03;995.63;;;8.80;99.90;;;;;;5052507;28;20070;-87
2022/01/17 12:35:04;;;;;;;1294.78;908.92;;;8.80;99.90;;;;;;5052409;28;20122;-85
2022/01/17 12:37:32;;;;;;;1444.18;991.72;;;8.80;99.90;;;;;;5051904;28;20109;-88
2022/01/17 12:40:31;;;;;;;1383.75;982.08;;;8.80;99.90;;;;;;5051447;28;20052;-85
2022/01/17 12:42:57;;;;;;;1415.85;989.30;;;8.80;99.90;;;;;;5038841;28;20392;-86
2022/01/17 12:45:36;;;;;;;1520.45;999.90;;;8.80;99.90;;;;;;5052235;28;20060;-84
2022/01/17 12:48:17;;;;;;;1550.85;999.90;;;8.80;99.90;;;;;;5052121;28;20063;-86
2022/01/17 12:50:45;;;;;;;1484.65;999.90;;;8.90;99.90;;;;;;5051991;28;20457;-91